Time;durP1;ratioP1;P1;durP2;ratioP2;P2;SDS_P1;SDS_P2;PMS_P1;PMS_P2;Temp;Humidity;BMP_temperature;BMP_pressure;BME280_temperature;BME280_humidity;BME280_pressure;Samples;Min_cycle;Max_cycle;Signal;HPM_P1;HPM_P2
2022/04/14 00:00:24;;;;;;;;;;;21.30;36.10;;;;;;498402;239;2432;-40
2022/04/14 00:02:25;;;;;;;;;;;21.30;36.10;;;;;;498923;239;2184;-40
2022/04/14 00:04:26;;;;;;;;;;;21.30;36.20;;;;;;498786;239;1050;-40
2022/04/14 00:06:28;;;;;;;;;;;21.30;36.10;;;;;;498455;239;1293;-39
2022/04/14 00:08:29;;;;;;;;;;;21.40;36.10;;;;;;498597;239;1200;-39
2022/04/14 00:10:30;;;;;;;;;;;21.40;36.10;;;;;;498916;239;1239;-39
2022/04/14 00:12:32;;;;;;;;;;;21.30;36.00;;;;;;498466;239;1070;-39
2022/04/14 00:14:33;;;;;;;;;;;21.30;36.10;;;;;;498946;239;1015;-39
2022/04/14 00:16:34;;;;;;;;;;;21.30;36.10;;;;;;498865;239;1307;-39
2022/04/14 00:18:36;;;;;;;;;;;21.30;36.10;;;;;;498953;239;979;-39
2022/04/14 00:20:37;;;;;;;;;;;21.30;36.10;;;;;;498917;239;1019;-39
2022/04/14 00:22:38;;;;;;;;;;;21.30;36.10;;;;;;498834;239;2125;-39
2022/04/14 00:24:40;;;;;;;;;;;21.30;36.10;;;;;;498914;239;1320;-40
2022/04/14 00:26:41;;;;;;;;;;;21.40;36.10;;;;;;498739;239;1192;-39
2022/04/14 00:28:42;;;;;;;;;;;21.40;36.20;;;;;;498419;239;1075;-39
2022/04/14 00:30:43;;;;;;;;;;;21.30;36.10;;;;;;498430;239;1321;-39
2022/04/14 00:32:45;;;;;;;;;;;21.30;36.10;;;;;;498862;239;1194;-39
2022/04/14 00:34:46;;;;;;;;;;;21.40;36.10;;;;;;498909;239;1053;-39
2022/04/14 00:36:47;;;;;;;;;;;21.40;36.10;;;;;;498396;239;1313;-39
2022/04/14 00:38:49;;;;;;;;;;;21.40;36.10;;;;;;498598;239;1188;-39
2022/04/14 00:40:52;;;;;;;;;;;21.40;36.10;;;;;;498879;239;1319;-39
2022/04/14 00:42:51;;;;;;;;;;;21.40;36.20;;;;;;498731;239;2469;-39
2022/04/14 00:44:53;;;;;;;;;;;21.30;36.10;;;;;;498906;239;1169;-39
2022/04/14 00:46:54;;;;;;;;;;;21.40;36.10;;;;;;498842;239;1321;-39
2022/04/14 00:48:55;;;;;;;;;;;21.40;36.20;;;;;;498939;239;1298;-39
2022/04/14 00:50:57;;;;;;;;;;;21.30;36.20;;;;;;498414;239;1146;-39
2022/04/14 00:52:58;;;;;;;;;;;21.30;36.20;;;;;;498880;239;1608;-39
2022/04/14 00:54:59;;;;;;;;;;;21.40;36.20;;;;;;498928;239;1072;-39
2022/04/14 00:57:01;;;;;;;;;;;21.40;36.20;;;;;;498563;239;1168;-39
2022/04/14 00:59:02;;;;;;;;;;;21.40;36.20;;;;;;498908;239;1089;-39
2022/04/14 01:01:05;;;;;;;;;;;21.30;36.10;;;;;;498846;239;1511;-39
2022/04/14 01:03:05;;;;;;;;;;;21.40;36.10;;;;;;498761;239;2767;-39
2022/04/14 01:05:06;;;;;;;;;;;21.30;36.20;;;;;;498444;239;1254;-39
2022/04/14 01:07:08;;;;;;;;;;;21.30;36.20;;;;;;498331;239;1186;-39
2022/04/14 01:09:19;;;;;;;;;;;21.40;36.20;;;;;;498638;239;1372;-39
2022/04/14 01:11:19;;;;;;;;;;;21.40;36.20;;;;;;498685;239;2074;-39
2022/04/14 01:13:20;;;;;;;;;;;21.40;36.10;;;;;;498450;239;1086;-39
2022/04/14 01:15:22;;;;;;;;;;;21.40;36.10;;;;;;498459;239;1085;-39
2022/04/14 01:17:23;;;;;;;;;;;21.40;36.10;;;;;;498855;239;1285;-39
2022/04/14 01:19:24;;;;;;;;;;;21.40;36.10;;;;;;498932;239;1035;-39
2022/04/14 01:21:27;;;;;;;;;;;21.30;36.10;;;;;;498896;239;2193;-39
2022/04/14 01:23:27;;;;;;;;;;;21.40;36.10;;;;;;498671;239;2060;-39
2022/04/14 01:25:28;;;;;;;;;;;21.40;36.10;;;;;;498869;239;1253;-39
2022/04/14 01:27:30;;;;;;;;;;;21.40;36.10;;;;;;498863;236;1216;-39
2022/04/14 01:29:31;;;;;;;;;;;21.30;36.20;;;;;;498436;239;1036;-39
2022/04/14 01:31:32;;;;;;;;;;;21.30;36.10;;;;;;498880;239;1251;-39
2022/04/14 01:33:34;;;;;;;;;;;21.40;36.20;;;;;;498939;239;1054;-39
2022/04/14 01:35:35;;;;;;;;;;;21.40;36.20;;;;;;498925;239;1264;-39
2022/04/14 01:37:36;;;;;;;;;;;21.40;36.10;;;;;;498869;239;1201;-39
2022/04/14 01:39:38;;;;;;;;;;;21.30;36.20;;;;;;498613;239;1147;-39
2022/04/14 01:41:39;;;;;;;;;;;21.30;36.10;;;;;;498864;239;2113;-40
2022/04/14 01:43:40;;;;;;;;;;;21.30;36.20;;;;;;498932;239;1048;-39
2022/04/14 01:45:46;;;;;;;;;;;21.40;36.20;;;;;;498434;239;1143;-39
2022/04/14 01:47:44;;;;;;;;;;;21.30;36.20;;;;;;498685;239;2165;-39
2022/04/14 01:49:45;;;;;;;;;;;21.30;36.20;;;;;;498943;239;1048;-39
2022/04/14 01:51:48;;;;;;;;;;;21.30;36.20;;;;;;498383;239;1157;-39
2022/04/14 01:53:49;;;;;;;;;;;21.30;36.10;;;;;;498857;239;1452;-39
2022/04/14 01:55:50;;;;;;;;;;;21.30;36.20;;;;;;498885;239;1325;-39
2022/04/14 01:57:51;;;;;;;;;;;21.30;36.30;;;;;;498872;239;1203;-39
2022/04/14 01:59:53;;;;;;;;;;;21.30;36.20;;;;;;498894;239;1092;-39
2022/04/14 02:01:54;;;;;;;;;;;21.30;36.20;;;;;;498769;239;2124;-39
2022/04/14 02:03:57;;;;;;;;;;;21.40;36.20;;;;;;498916;239;1135;-39
2022/04/14 02:05:57;;;;;;;;;;;21.30;36.10;;;;;;498412;239;1352;-39
2022/04/14 02:07:58;;;;;;;;;;;21.30;36.20;;;;;;498823;239;1243;-39
2022/04/14 02:09:59;;;;;;;;;;;21.30;36.20;;;;;;498548;239;1233;-39
2022/04/14 02:12:01;;;;;;;;;;;21.30;36.20;;;;;;498311;239;1194;-39
2022/04/14 02:14:02;;;;;;;;;;;21.30;36.10;;;;;;498740;239;1027;-39
2022/04/14 02:16:04;;;;;;;;;;;21.30;36.20;;;;;;498884;239;1190;-39
2022/04/14 02:18:05;;;;;;;;;;;21.30;36.20;;;;;;498850;239;1178;-39
2022/04/14 02:20:06;;;;;;;;;;;21.30;36.10;;;;;;498902;239;1015;-39
2022/04/14 02:22:08;;;;;;;;;;;21.40;36.20;;;;;;498847;239;2162;-39
2022/04/14 02:24:09;;;;;;;;;;;21.30;36.20;;;;;;498836;239;1165;-39
2022/04/14 02:26:10;;;;;;;;;;;21.30;36.20;;;;;;498428;239;1145;-39
2022/04/14 02:28:13;;;;;;;;;;;21.30;36.20;;;;;;498900;239;1122;-39
2022/04/14 02:30:13;;;;;;;;;;;21.30;36.10;;;;;;498322;239;1520;-39
2022/04/14 02:32:14;;;;;;;;;;;21.30;36.20;;;;;;498844;239;1148;-40
2022/04/14 02:34:15;;;;;;;;;;;21.30;36.20;;;;;;498912;239;1233;-40
2022/04/14 02:36:17;;;;;;;;;;;21.40;36.20;;;;;;498876;239;1180;-40
2022/04/14 02:38:18;;;;;;;;;;;21.30;36.10;;;;;;498389;239;1129;-40
2022/04/14 02:40:19;;;;;;;;;;;21.30;36.10;;;;;;498584;239;1213;-39
2022/04/14 02:42:21;;;;;;;;;;;21.40;36.20;;;;;;498831;239;2101;-39
2022/04/14 02:44:22;;;;;;;;;;;21.30;36.10;;;;;;498418;239;1304;-39
2022/04/14 02:46:23;;;;;;;;;;;21.30;36.20;;;;;;498923;239;1523;-39
2022/04/14 02:48:25;;;;;;;;;;;21.40;36.30;;;;;;498960;239;1053;-39
2022/04/14 02:50:26;;;;;;;;;;;21.30;36.30;;;;;;498957;239;1051;-39
2022/04/14 02:52:27;;;;;;;;;;;21.30;36.20;;;;;;498791;239;1247;-39
2022/04/14 02:54:29;;;;;;;;;;;21.30;36.20;;;;;;498818;239;1175;-39
2022/04/14 02:56:30;;;;;;;;;;;21.30;36.30;;;;;;498866;239;1433;-39
2022/04/14 02:58:31;;;;;;;;;;;21.30;36.20;;;;;;498927;239;1180;-39
2022/04/14 03:00:33;;;;;;;;;;;21.30;36.30;;;;;;498421;239;1100;-39
2022/04/14 03:02:34;;;;;;;;;;;21.30;36.30;;;;;;498493;239;2122;-39
2022/04/14 03:04:35;;;;;;;;;;;21.30;36.30;;;;;;498466;239;1025;-39
2022/04/14 03:06:36;;;;;;;;;;;21.40;36.30;;;;;;498846;239;1186;-39
2022/04/14 03:08:38;;;;;;;;;;;21.40;36.20;;;;;;498932;239;1173;-39
2022/04/14 03:10:39;;;;;;;;;;;21.30;36.20;;;;;;498602;239;1358;-39
2022/04/14 03:12:41;;;;;;;;;;;21.30;36.20;;;;;;498877;239;1165;-39
2022/04/14 03:14:43;;;;;;;;;;;21.40;36.30;;;;;;498947;239;1015;-40
2022/04/14 03:16:43;;;;;;;;;;;21.30;36.20;;;;;;498356;239;2350;-40
2022/04/14 03:18:45;;;;;;;;;;;21.40;36.30;;;;;;498918;239;1071;-40
2022/04/14 03:20:46;;;;;;;;;;;21.30;36.20;;;;;;498915;239;1331;-40
2022/04/14 03:22:47;;;;;;;;;;;21.30;36.20;;;;;;498830;239;2188;-40
2022/04/14 03:24:49;;;;;;;;;;;21.30;36.20;;;;;;498908;239;1131;-40
2022/04/14 03:26:50;;;;;;;;;;;21.30;36.20;;;;;;498891;239;1478;-39
2022/04/14 03:28:51;;;;;;;;;;;21.30;36.20;;;;;;498928;239;1086;-39
2022/04/14 03:30:53;;;;;;;;;;;21.40;36.30;;;;;;498593;239;1360;-39
2022/04/14 03:32:54;;;;;;;;;;;21.30;36.30;;;;;;498474;239;1099;-39
2022/04/14 03:34:55;;;;;;;;;;;21.30;36.20;;;;;;498964;239;1034;-39
2022/04/14 03:36:56;;;;;;;;;;;21.30;36.20;;;;;;498398;239;1202;-39
2022/04/14 03:38:58;;;;;;;;;;;21.40;36.20;;;;;;498921;239;1131;-39
2022/04/14 03:41:02;;;;;;;;;;;21.30;36.30;;;;;;498618;239;1207;-39
2022/04/14 03:43:01;;;;;;;;;;;21.30;36.20;;;;;;498741;239;2180;-39
2022/04/14 03:45:02;;;;;;;;;;;21.30;36.20;;;;;;498933;239;1088;-39
2022/04/14 03:47:04;;;;;;;;;;;21.30;36.30;;;;;;498894;239;1160;-39
2022/04/14 03:49:05;;;;;;;;;;;21.30;36.30;;;;;;498934;239;1057;-39
2022/04/14 03:51:06;;;;;;;;;;;21.40;36.30;;;;;;498830;239;1158;-39
2022/04/14 03:53:08;;;;;;;;;;;21.30;36.20;;;;;;498938;239;1086;-39
2022/04/14 03:55:09;;;;;;;;;;;21.40;36.20;;;;;;498892;239;1210;-39
2022/04/14 03:57:10;;;;;;;;;;;21.40;36.20;;;;;;498764;239;1250;-39
2022/04/14 03:59:13;;;;;;;;;;;21.40;36.20;;;;;;498881;239;1054;-39
2022/04/14 04:01:13;;;;;;;;;;;21.30;36.10;;;;;;498381;239;2328;-39
2022/04/14 04:03:14;;;;;;;;;;;21.40;36.20;;;;;;498887;239;2188;-39
2022/04/14 04:05:16;;;;;;;;;;;21.40;36.20;;;;;;498892;239;1446;-39
2022/04/14 04:07:17;;;;;;;;;;;21.40;36.20;;;;;;498842;239;1015;-39
2022/04/14 04:09:18;;;;;;;;;;;21.30;36.10;;;;;;498908;239;1097;-39
2022/04/14 04:11:20;;;;;;;;;;;21.40;36.20;;;;;;498583;239;1186;-39
2022/04/14 04:13:21;;;;;;;;;;;21.40;36.20;;;;;;498734;239;1092;-39
2022/04/14 04:15:22;;;;;;;;;;;21.30;36.20;;;;;;498886;239;1135;-39
2022/04/14 04:17:24;;;;;;;;;;;21.40;36.20;;;;;;498719;239;1243;-39
2022/04/14 04:19:25;;;;;;;;;;;21.40;36.20;;;;;;498423;239;1063;-39
2022/04/14 04:21:29;;;;;;;;;;;21.40;36.30;;;;;;498596;239;1164;-39
2022/04/14 04:23:28;;;;;;;;;;;21.40;36.20;;;;;;498140;239;2114;-39
2022/04/14 04:25:29;;;;;;;;;;;21.40;36.20;;;;;;498818;239;1276;-39
2022/04/14 04:27:31;;;;;;;;;;;21.40;36.30;;;;;;498822;239;1142;-39
2022/04/14 04:29:32;;;;;;;;;;;21.40;36.30;;;;;;498868;239;1168;-39
2022/04/14 04:31:33;;;;;;;;;;;21.40;36.30;;;;;;498346;239;1185;-39
2022/04/14 04:33:34;;;;;;;;;;;21.40;36.20;;;;;;498805;239;1066;-40
2022/04/14 04:35:36;;;;;;;;;;;21.40;36.20;;;;;;498299;239;1302;-39
2022/04/14 04:37:37;;;;;;;;;;;21.30;36.30;;;;;;498736;239;1241;-39
2022/04/14 04:39:39;;;;;;;;;;;21.30;36.20;;;;;;498892;239;1121;-39
2022/04/14 04:41:40;;;;;;;;;;;21.40;36.20;;;;;;498764;239;1202;-39
2022/04/14 04:43:41;;;;;;;;;;;21.30;36.20;;;;;;498492;239;2185;-39
2022/04/14 04:45:42;;;;;;;;;;;21.30;36.30;;;;;;498529;239;1343;-39
2022/04/14 04:47:44;;;;;;;;;;;21.30;36.30;;;;;;498362;239;1097;-39
2022/04/14 04:49:45;;;;;;;;;;;21.40;36.30;;;;;;498966;239;1226;-39
2022/04/14 04:51:46;;;;;;;;;;;21.40;36.30;;;;;;498600;239;1352;-39
2022/04/14 04:53:48;;;;;;;;;;;21.30;36.30;;;;;;498658;239;1088;-39
2022/04/14 07:10:03;;;;;;;;;;;21.30;36.60;;;;;;496182;239;2805;-39
2022/04/14 07:12:04;;;;;;;;;;;21.40;36.70;;;;;;487714;242;1204;-39
2022/04/14 07:14:05;;;;;;;;;;;21.40;36.70;;;;;;487621;242;1226;-39
2022/04/14 07:16:07;;;;;;;;;;;21.40;36.60;;;;;;487537;242;1309;-39
2022/04/14 07:18:08;;;;;;;;;;;21.40;36.60;;;;;;488023;242;1224;-39
2022/04/14 07:20:10;;;;;;;;;;;21.40;36.70;;;;;;487959;242;1231;-40
2022/04/14 07:22:11;;;;;;;;;;;21.30;36.70;;;;;;487833;242;1361;-39
2022/04/14 07:24:12;;;;;;;;;;;21.40;36.70;;;;;;487740;243;2186;-39
2022/04/14 07:26:14;;;;;;;;;;;21.40;36.80;;;;;;487704;243;1360;-39
2022/04/14 07:28:15;;;;;;;;;;;21.40;36.80;;;;;;487801;242;1327;-39
2022/04/14 07:30:18;;;;;;;;;;;21.40;36.70;;;;;;488008;242;1112;-39
2022/04/14 07:32:18;;;;;;;;;;;21.40;36.70;;;;;;487692;244;2167;-40
2022/04/14 07:34:19;;;;;;;;;;;21.40;36.70;;;;;;487999;242;1076;-39
2022/04/14 07:36:21;;;;;;;;;;;21.40;36.80;;;;;;487907;242;1162;-39
2022/04/14 07:38:22;;;;;;;;;;;21.30;36.80;;;;;;487911;243;2039;-40
2022/04/14 07:40:24;;;;;;;;;;;21.40;36.80;;;;;;488267;242;1381;-39
2022/04/14 07:42:25;;;;;;;;;;;21.40;36.80;;;;;;487918;243;2475;-39
2022/04/14 07:44:26;;;;;;;;;;;21.40;36.90;;;;;;488019;243;2190;-39
2022/04/14 07:46:27;;;;;;;;;;;21.40;36.80;;;;;;487932;243;1311;-39
2022/04/14 07:48:29;;;;;;;;;;;21.40;36.80;;;;;;487982;243;1113;-39
2022/04/14 07:50:30;;;;;;;;;;;21.40;36.80;;;;;;488165;242;1094;-39
2022/04/14 07:52:31;;;;;;;;;;;21.40;36.80;;;;;;488019;242;1203;-39
2022/04/14 07:54:34;;;;;;;;;;;21.40;36.80;;;;;;487155;242;1076;-39
2022/04/14 07:56:34;;;;;;;;;;;21.40;36.80;;;;;;487598;243;2294;-39
2022/04/14 07:58:38;;;;;;;;;;;21.40;36.80;;;;;;487961;242;1102;-39
2022/04/14 08:00:37;;;;;;;;;;;21.40;36.80;;;;;;487642;243;1959;-39
2022/04/14 08:02:38;;;;;;;;;;;21.40;36.80;;;;;;487920;242;1265;-39
2022/04/14 08:04:40;;;;;;;;;;;21.40;36.90;;;;;;487864;243;2130;-39
2022/04/14 08:06:41;;;;;;;;;;;21.40;36.80;;;;;;488110;243;2245;-40
2022/04/14 08:08:42;;;;;;;;;;;21.40;36.80;;;;;;488006;243;1236;-39
2022/04/14 08:10:43;;;;;;;;;;;21.40;36.80;;;;;;487973;243;1490;-39
2022/04/14 08:12:44;;;;;;;;;;;21.40;36.80;;;;;;487995;242;1309;-39
2022/04/14 08:14:46;;;;;;;;;;;21.40;36.80;;;;;;487834;243;1082;-39
2022/04/14 08:16:47;;;;;;;;;;;21.50;36.70;;;;;;487967;242;1192;-39
2022/04/14 08:18:48;;;;;;;;;;;21.40;36.80;;;;;;488425;242;1073;-39
2022/04/14 08:20:50;;;;;;;;;;;21.40;36.80;;;;;;487964;243;1198;-39
2022/04/14 08:22:51;;;;;;;;;;;21.50;36.80;;;;;;488020;242;1132;-40
2022/04/14 08:24:52;;;;;;;;;;;21.40;36.80;;;;;;488045;242;2190;-39
2022/04/14 08:26:54;;;;;;;;;;;21.40;36.80;;;;;;488761;243;2371;-40
2022/04/14 08:28:56;;;;;;;;;;;21.50;36.80;;;;;;488616;243;1284;-39
2022/04/14 08:30:57;;;;;;;;;;;21.50;36.80;;;;;;488759;243;1191;-39
2022/04/14 08:32:58;;;;;;;;;;;21.50;36.80;;;;;;488514;243;1322;-39
2022/04/14 08:34:59;;;;;;;;;;;21.50;36.90;;;;;;488572;243;1170;-39
2022/04/14 08:37:01;;;;;;;;;;;21.50;36.90;;;;;;488644;243;1121;-39
2022/04/14 08:39:02;;;;;;;;;;;21.40;36.90;;;;;;488599;243;1168;-39
2022/04/14 08:41:04;;;;;;;;;;;21.50;36.90;;;;;;488574;243;1284;-39
2022/04/14 08:43:05;;;;;;;;;;;21.50;36.90;;;;;;488654;243;2207;-39
2022/04/14 08:45:06;;;;;;;;;;;21.50;36.90;;;;;;488641;243;2206;-39
2022/04/14 08:47:08;;;;;;;;;;;21.50;36.90;;;;;;488531;243;1089;-39
2022/04/14 08:49:09;;;;;;;;;;;21.40;36.90;;;;;;488762;243;1157;-39
2022/04/14 08:51:14;;;;;;;;;;;21.40;36.90;;;;;;488893;243;1094;-40
2022/04/14 08:53:12;;;;;;;;;;;21.40;36.90;;;;;;488593;243;1407;-39
2022/04/14 08:55:14;;;;;;;;;;;21.40;36.90;;;;;;488457;243;1282;-39
2022/04/14 08:57:15;;;;;;;;;;;21.40;37.00;;;;;;488551;243;2181;-39
2022/04/14 08:59:16;;;;;;;;;;;21.40;37.00;;;;;;488636;243;2148;-39
2022/04/14 09:01:17;;;;;;;;;;;21.40;37.00;;;;;;488657;243;1237;-40
2022/04/14 09:03:19;;;;;;;;;;;21.50;37.00;;;;;;488593;243;1296;-39
2022/04/14 09:05:20;;;;;;;;;;;21.40;37.00;;;;;;488939;243;2114;-39
2022/04/14 09:07:21;;;;;;;;;;;21.40;37.00;;;;;;488802;243;1156;-40
2022/04/14 09:09:24;;;;;;;;;;;21.40;37.00;;;;;;488892;243;1218;-39
2022/04/14 09:11:25;;;;;;;;;;;21.40;37.00;;;;;;488682;243;2494;-39
2022/04/14 09:13:26;;;;;;;;;;;21.40;37.10;;;;;;488581;243;1317;-39
2022/04/14 09:15:28;;;;;;;;;;;21.40;37.10;;;;;;488422;243;1048;-39
2022/04/14 09:17:29;;;;;;;;;;;21.40;37.10;;;;;;488720;243;1163;-39
2022/04/14 09:19:31;;;;;;;;;;;21.40;37.10;;;;;;488978;243;1041;-39
2022/04/14 09:21:32;;;;;;;;;;;21.40;37.10;;;;;;489093;243;1068;-39
2022/04/14 09:23:36;;;;;;;;;;;21.40;37.20;;;;;;489046;243;1092;-39
2022/04/14 09:25:36;;;;;;;;;;;21.40;37.20;;;;;;488963;243;2193;-39
2022/04/14 09:27:39;;;;;;;;;;;21.40;37.20;;;;;;489022;243;1086;-40
2022/04/14 09:29:41;;;;;;;;;;;21.40;37.20;;;;;;489462;243;2232;-40
2022/04/14 09:31:42;;;;;;;;;;;21.40;37.20;;;;;;489252;243;1246;-39
2022/04/14 09:33:43;;;;;;;;;;;21.40;37.10;;;;;;488948;243;1091;-39
2022/04/14 09:35:44;;;;;;;;;;;21.40;37.20;;;;;;487956;243;1232;-39
2022/04/14 09:37:46;;;;;;;;;;;21.40;37.20;;;;;;487753;244;1143;-39
2022/04/14 09:39:47;;;;;;;;;;;21.40;37.20;;;;;;488020;244;1110;-39
2022/04/14 09:49:49;;;;;;;;;;;21.40;37.20;;;;;;489728;242;4488;-39
2022/04/14 09:51:51;;;;;;;;;;;21.40;37.20;;;;;;489915;242;1128;-39
2022/04/14 09:53:52;;;;;;;;;;;21.30;37.30;;;;;;489883;242;1122;-40
2022/04/14 09:55:54;;;;;;;;;;;21.40;37.30;;;;;;490361;242;1086;-39
2022/04/14 09:57:55;;;;;;;;;;;21.40;37.30;;;;;;490114;242;1187;-39
2022/04/14 09:59:56;;;;;;;;;;;21.30;37.30;;;;;;490050;242;1206;-39
2022/04/14 10:01:58;;;;;;;;;;;21.30;37.40;;;;;;489965;242;1171;-39
2022/04/14 10:03:59;;;;;;;;;;;21.30;37.30;;;;;;490441;242;2142;-39
2022/04/14 10:06:00;;;;;;;;;;;21.30;37.30;;;;;;490222;242;1136;-39
2022/04/14 10:08:02;;;;;;;;;;;21.40;37.30;;;;;;490238;242;1197;-39
2022/04/14 10:10:03;;;;;;;;;;;21.40;37.30;;;;;;490076;242;1182;-40
2022/04/14 10:12:04;;;;;;;;;;;21.40;37.40;;;;;;490211;242;1069;-40
2022/04/14 10:14:06;;;;;;;;;;;21.30;37.30;;;;;;490064;242;1167;-40
2022/04/14 10:16:07;;;;;;;;;;;21.40;37.40;;;;;;490004;242;1149;-39
2022/04/14 10:18:09;;;;;;;;;;;21.40;37.40;;;;;;490190;242;1179;-39
2022/04/14 10:20:10;;;;;;;;;;;21.40;37.40;;;;;;489955;242;1141;-39
2022/04/14 10:22:11;;;;;;;;;;;21.40;37.40;;;;;;490088;242;1047;-39
2022/04/14 10:24:13;;;;;;;;;;;21.40;37.40;;;;;;490078;242;2874;-39
2022/04/14 10:26:14;;;;;;;;;;;21.40;37.30;;;;;;490130;242;1053;-39
2022/04/14 10:28:15;;;;;;;;;;;21.40;37.30;;;;;;490069;242;1041;-39
2022/04/14 10:30:19;;;;;;;;;;;21.40;37.30;;;;;;490013;242;1093;-39
2022/04/14 10:32:18;;;;;;;;;;;21.40;37.30;;;;;;489901;243;1580;-39
2022/04/14 10:34:19;;;;;;;;;;;21.40;37.30;;;;;;490313;242;1187;-39
2022/04/14 10:36:21;;;;;;;;;;;21.40;37.30;;;;;;490365;242;1117;-39
2022/04/14 10:38:22;;;;;;;;;;;21.40;37.30;;;;;;490249;242;1098;-39
2022/04/14 10:40:23;;;;;;;;;;;21.40;37.30;;;;;;489973;242;1060;-39
2022/04/14 10:42:25;;;;;;;;;;;21.40;37.40;;;;;;489877;242;1223;-39
2022/04/14 10:44:26;;;;;;;;;;;21.40;37.40;;;;;;490216;242;2184;-39
2022/04/14 10:46:27;;;;;;;;;;;21.40;37.40;;;;;;490282;242;1222;-39
2022/04/14 10:48:29;;;;;;;;;;;21.40;37.40;;;;;;490109;242;1077;-39
2022/04/14 10:50:30;;;;;;;;;;;21.40;37.40;;;;;;490012;242;1225;-39
2022/04/14 10:52:32;;;;;;;;;;;21.40;37.40;;;;;;490041;242;1124;-39
2022/04/14 10:54:34;;;;;;;;;;;21.40;37.40;;;;;;490087;242;1052;-39
2022/04/14 10:56:34;;;;;;;;;;;21.40;37.30;;;;;;490001;243;1545;-40
2022/04/14 10:58:36;;;;;;;;;;;21.40;37.40;;;;;;488653;242;1210;-40
2022/04/14 11:00:37;;;;;;;;;;;21.40;37.40;;;;;;488603;243;1078;-40
2022/04/14 11:02:38;;;;;;;;;;;21.40;37.50;;;;;;488553;243;1084;-40
2022/04/14 11:04:39;;;;;;;;;;;21.40;37.50;;;;;;484080;243;2202;-40
2022/04/14 11:06:41;;;;;;;;;;;21.30;37.50;;;;;;484003;246;1058;-40
2022/04/14 11:08:42;;;;;;;;;;;21.40;37.50;;;;;;490000;243;1105;-40
2022/04/14 11:10:43;;;;;;;;;;;21.40;37.50;;;;;;490042;242;1071;-40
2022/04/14 11:12:45;;;;;;;;;;;21.40;37.50;;;;;;490297;242;1203;-39
2022/04/14 11:14:46;;;;;;;;;;;21.40;37.50;;;;;;490275;242;1066;-40
2022/04/14 11:16:48;;;;;;;;;;;21.40;37.50;;;;;;490270;242;1068;-40
2022/04/14 11:18:49;;;;;;;;;;;21.40;37.60;;;;;;490159;242;1268;-40
2022/04/14 11:20:51;;;;;;;;;;;21.40;37.50;;;;;;489974;242;1258;-40
2022/04/14 11:22:52;;;;;;;;;;;21.40;37.60;;;;;;489954;242;1390;-40
2022/04/14 11:24:53;;;;;;;;;;;21.40;37.50;;;;;;490727;242;2122;-39
2022/04/14 11:26:54;;;;;;;;;;;21.40;37.50;;;;;;488770;242;1115;-39
2022/04/14 11:28:56;;;;;;;;;;;21.40;37.50;;;;;;488807;243;1096;-40
2022/04/14 11:30:57;;;;;;;;;;;21.30;37.50;;;;;;488976;243;1254;-40
2022/04/14 11:32:58;;;;;;;;;;;21.40;37.60;;;;;;488782;243;1152;-40
2022/04/14 11:35:00;;;;;;;;;;;21.40;37.60;;;;;;488757;243;1211;-39
2022/04/14 11:37:01;;;;;;;;;;;21.40;37.50;;;;;;488536;243;1090;-40
2022/04/14 11:39:03;;;;;;;;;;;21.40;37.50;;;;;;488631;243;1094;-40
2022/04/14 11:41:04;;;;;;;;;;;21.40;37.50;;;;;;488534;243;1092;-40
2022/04/14 11:43:05;;;;;;;;;;;21.40;37.50;;;;;;488660;243;1060;-39
2022/04/14 11:45:07;;;;;;;;;;;21.40;37.50;;;;;;488828;243;2111;-40
2022/04/14 11:47:08;;;;;;;;;;;21.40;37.50;;;;;;488774;243;1042;-40
2022/04/14 11:49:09;;;;;;;;;;;21.40;37.50;;;;;;488682;243;1120;-39
2022/04/14 11:51:11;;;;;;;;;;;21.40;37.50;;;;;;488586;243;1410;-39
2022/04/14 11:53:12;;;;;;;;;;;21.40;37.60;;;;;;488669;243;1027;-40
2022/04/14 11:55:13;;;;;;;;;;;21.50;37.50;;;;;;488842;243;1179;-40
2022/04/14 11:57:15;;;;;;;;;;;21.40;37.50;;;;;;488750;243;1240;-40
2022/04/14 11:59:16;;;;;;;;;;;21.40;37.60;;;;;;488831;243;1072;-40
2022/04/14 12:01:17;;;;;;;;;;;21.40;37.60;;;;;;489051;243;1055;-40
2022/04/14 12:03:18;;;;;;;;;;;21.40;37.50;;;;;;488682;243;1058;-40
2022/04/14 12:05:22;;;;;;;;;;;21.40;37.60;;;;;;488825;243;2185;-40
2022/04/14 12:07:21;;;;;;;;;;;21.40;37.60;;;;;;488813;243;2097;-40
2022/04/14 12:09:24;;;;;;;;;;;21.40;37.60;;;;;;488934;243;1101;-40
2022/04/14 12:11:26;;;;;;;;;;;21.40;37.50;;;;;;488568;243;2051;-39
2022/04/14 12:13:26;;;;;;;;;;;21.40;37.60;;;;;;488864;243;2148;-40
2022/04/14 12:15:27;;;;;;;;;;;21.40;37.50;;;;;;488989;243;1123;-39
2022/04/14 12:17:30;;;;;;;;;;;21.40;37.50;;;;;;488681;243;1233;-40
2022/04/14 12:19:30;;;;;;;;;;;21.40;37.60;;;;;;488512;243;2007;-40
2022/04/14 12:21:31;;;;;;;;;;;21.40;37.60;;;;;;488482;243;1332;-40
2022/04/14 12:23:33;;;;;;;;;;;21.40;37.60;;;;;;488713;243;1227;-40
2022/04/14 12:25:34;;;;;;;;;;;21.40;37.60;;;;;;489237;243;2110;-40
2022/04/14 12:27:37;;;;;;;;;;;21.40;37.60;;;;;;488767;243;1101;-39
2022/04/14 12:29:37;;;;;;;;;;;21.40;37.60;;;;;;488590;243;1879;-40
2022/04/14 12:31:38;;;;;;;;;;;21.40;37.70;;;;;;488577;243;1076;-40
2022/04/14 12:33:40;;;;;;;;;;;21.50;37.60;;;;;;488775;243;1117;-40
2022/04/14 12:35:41;;;;;;;;;;;21.40;37.50;;;;;;488793;243;1116;-40
2022/04/14 12:37:42;;;;;;;;;;;21.50;37.60;;;;;;488723;243;1249;-40
2022/04/14 12:39:43;;;;;;;;;;;21.50;37.60;;;;;;488784;243;1119;-40
2022/04/14 12:41:45;;;;;;;;;;;21.40;37.60;;;;;;488808;243;1220;-40
2022/04/14 12:43:48;;;;;;;;;;;21.40;37.70;;;;;;488646;243;1096;-40
2022/04/14 12:45:48;;;;;;;;;;;21.40;37.70;;;;;;488498;243;2205;-40
2022/04/14 12:47:49;;;;;;;;;;;21.40;37.70;;;;;;488726;243;1056;-40
2022/04/14 12:49:52;;;;;;;;;;;21.40;37.70;;;;;;488648;243;1070;-39
2022/04/14 12:51:54;;;;;;;;;;;21.40;37.70;;;;;;488666;243;1200;-40
2022/04/14 12:53:56;;;;;;;;;;;21.40;37.70;;;;;;488844;243;1071;-40
2022/04/14 12:55:57;;;;;;;;;;;21.50;37.70;;;;;;488779;243;1071;-40
2022/04/14 12:57:59;;;;;;;;;;;21.50;37.70;;;;;;488885;243;1083;-40
2022/04/14 13:00:01;;;;;;;;;;;21.50;37.70;;;;;;488803;243;1049;-40
2022/04/14 13:02:02;;;;;;;;;;;21.40;37.60;;;;;;488706;243;1106;-40
2022/04/14 13:04:04;;;;;;;;;;;21.50;37.70;;;;;;488954;243;1086;-40
2022/04/14 13:06:06;;;;;;;;;;;21.40;37.70;;;;;;488763;243;2125;-40
2022/04/14 13:08:06;;;;;;;;;;;21.50;37.80;;;;;;488707;243;2349;-40
2022/04/14 13:10:07;;;;;;;;;;;21.40;37.80;;;;;;489013;243;1082;-40
2022/04/14 13:12:09;;;;;;;;;;;21.40;37.70;;;;;;488690;243;1067;-39
2022/04/14 13:14:10;;;;;;;;;;;21.40;37.70;;;;;;488769;243;1057;-40
2022/04/14 13:16:12;;;;;;;;;;;21.40;37.80;;;;;;488790;243;1089;-40
2022/04/14 13:18:13;;;;;;;;;;;21.40;37.80;;;;;;488716;243;1098;-40
2022/04/14 13:20:16;;;;;;;;;;;21.40;37.90;;;;;;488817;243;1225;-40
2022/04/14 13:22:16;;;;;;;;;;;21.40;37.90;;;;;;488644;243;2339;-39
2022/04/14 13:24:17;;;;;;;;;;;21.40;37.90;;;;;;489041;243;1405;-40
2022/04/14 13:26:18;;;;;;;;;;;21.40;37.90;;;;;;488710;243;2189;-40
2022/04/14 13:28:20;;;;;;;;;;;21.40;37.90;;;;;;489011;243;1237;-39
2022/04/14 13:30:21;;;;;;;;;;;21.40;37.90;;;;;;488886;243;1110;-39
2022/04/14 13:32:23;;;;;;;;;;;21.40;37.80;;;;;;488823;243;1149;-40
2022/04/14 13:34:25;;;;;;;;;;;21.40;37.80;;;;;;488961;243;1040;-40
2022/04/14 13:36:26;;;;;;;;;;;21.40;37.90;;;;;;488744;243;1205;-40
2022/04/14 13:38:27;;;;;;;;;;;21.40;37.80;;;;;;488885;243;1083;-40
2022/04/14 13:40:29;;;;;;;;;;;21.40;37.90;;;;;;488871;243;1346;-40
2022/04/14 13:42:30;;;;;;;;;;;21.50;37.80;;;;;;488879;243;1102;-40
2022/04/14 13:44:31;;;;;;;;;;;21.50;37.80;;;;;;488861;243;1110;-40
2022/04/14 13:46:33;;;;;;;;;;;21.50;37.80;;;;;;488902;243;2127;-40
2022/04/14 13:48:34;;;;;;;;;;;21.40;37.80;;;;;;488818;243;1124;-39
2022/04/14 13:50:37;;;;;;;;;;;21.50;37.90;;;;;;488626;243;1083;-40
2022/04/14 13:52:36;;;;;;;;;;;21.40;37.90;;;;;;488577;243;2213;-40
2022/04/14 13:54:38;;;;;;;;;;;21.50;37.90;;;;;;488904;243;1101;-40
2022/04/14 13:56:39;;;;;;;;;;;21.50;37.90;;;;;;488673;243;1157;-40
2022/04/14 13:58:40;;;;;;;;;;;21.50;37.90;;;;;;488816;243;1047;-39
2022/04/14 14:00:42;;;;;;;;;;;21.40;37.90;;;;;;488889;243;1064;-40
2022/04/14 14:02:43;;;;;;;;;;;21.40;37.90;;;;;;488914;243;1080;-40
2022/04/14 14:04:44;;;;;;;;;;;21.50;38.00;;;;;;488822;243;1102;-40
2022/04/14 14:06:46;;;;;;;;;;;21.50;37.90;;;;;;484938;243;2182;-40
2022/04/14 14:08:47;;;;;;;;;;;21.40;37.90;;;;;;487447;244;1055;-40
2022/04/14 14:10:48;;;;;;;;;;;21.40;37.90;;;;;;489590;242;1194;-40
2022/04/14 14:12:50;;;;;;;;;;;21.40;37.90;;;;;;490210;242;1089;-40
2022/04/14 14:14:51;;;;;;;;;;;21.40;37.90;;;;;;490269;242;1030;-40
2022/04/14 14:16:52;;;;;;;;;;;21.40;37.90;;;;;;490251;242;1039;-39
2022/04/14 14:18:54;;;;;;;;;;;21.40;37.90;;;;;;490221;242;1033;-40